Time;durP1;ratioP1;P1;durP2;ratioP2;P2;SDS_P1;SDS_P2;PMS_P1;PMS_P2;Temp;Humidity;BMP_temperature;BMP_pressure;BME280_temperature;BME280_humidity;BME280_pressure;Samples;Min_cycle;Max_cycle;Signal;HPM_P1;HPM_P2
2021/07/23 00:02:03;;;;;;;;;;;11.40;91.50;;;;;;5026237;28;20402;-68
2021/07/23 00:04:28;;;;;;;;;;;11.30;90.90;;;;;;5023468;28;19921;-69
2021/07/23 00:06:53;;;;;;;;;;;11.40;91.60;;;;;;5025545;28;19917;-69
2021/07/23 00:09:19;;;;;;;;;;;11.30;91.50;;;;;;5025419;28;20022;-69
2021/07/23 00:11:44;;;;;;;;;;;11.30;92.30;;;;;;5019610;28;20023;-68
2021/07/23 00:14:10;;;;;;;;;;;11.30;92.50;;;;;;5012801;28;20337;-69
2021/07/23 00:16:36;;;;;;;;;;;11.20;91.50;;;;;;5021425;28;19918;-68
2021/07/23 00:19:02;;;;;;;;;;;11.10;91.50;;;;;;5018250;28;20007;-69
2021/07/23 00:21:27;;;;;;;;;;;11.10;91.40;;;;;;5005432;28;20032;-69
2021/07/23 00:23:53;;;;;;;;;;;11.10;92.40;;;;;;5024184;28;19917;-68
2021/07/23 00:26:19;;;;;;;;;;;11.10;91.90;;;;;;5024412;28;20426;-69
2021/07/23 00:28:44;;;;;;;;;;;11.10;92.70;;;;;;5025780;28;19971;-69
2021/07/23 00:31:10;;;;;;;;;;;11.20;93.20;;;;;;5021182;28;20284;-69
2021/07/23 00:33:35;;;;;;;;;;;11.20;93.40;;;;;;5004813;28;20284;-69
2021/07/23 00:36:01;;;;;;;;;;;11.30;93.50;;;;;;5023545;28;19913;-68
2021/07/23 00:38:27;;;;;;;;;;;11.30;93.50;;;;;;5023341;28;19913;-68
2021/07/23 00:40:52;;;;;;;;;;;11.40;93.50;;;;;;5025310;28;19971;-69
2021/07/23 00:43:18;;;;;;;;;;;11.40;93.60;;;;;;5026279;28;19917;-69
2021/07/23 00:45:44;;;;;;;;;;;11.40;92.80;;;;;;5021846;28;19929;-68
2021/07/23 00:48:09;;;;;;;;;;;11.50;93.10;;;;;;5021251;28;19993;-69
2021/07/23 00:50:35;;;;;;;;;;;11.50;92.70;;;;;;5016655;28;20385;-69
2021/07/23 00:53:02;;;;;;;;;;;11.60;92.90;;;;;;5020717;28;20034;-70
2021/07/23 00:55:28;;;;;;;;;;;11.70;92.80;;;;;;5018459;28;20120;-70
2021/07/23 00:57:54;;;;;;;;;;;11.80;92.60;;;;;;5023696;28;20396;-68
2021/07/23 01:00:19;;;;;;;;;;;11.70;92.80;;;;;;5023545;28;19917;-69
2021/07/23 01:02:46;;;;;;;;;;;11.70;93.10;;;;;;5015161;28;20419;-69
2021/07/23 01:05:11;;;;;;;;;;;11.70;93.10;;;;;;5024274;28;20219;-68
2021/07/23 01:07:37;;;;;;;;;;;11.70;92.80;;;;;;5023288;28;19920;-69
2021/07/23 01:10:03;;;;;;;;;;;11.60;93.20;;;;;;5025140;28;19914;-69
2021/07/23 01:12:29;;;;;;;;;;;11.60;93.40;;;;;;5020553;28;20283;-70
2021/07/23 01:14:54;;;;;;;;;;;11.70;93.20;;;;;;5013902;28;19960;-68
2021/07/23 01:17:20;;;;;;;;;;;11.70;93.30;;;;;;5013964;28;20380;-69
2021/07/23 01:19:51;;;;;;;;;;;11.60;93.40;;;;;;5023813;28;19928;-69
2021/07/23 01:22:18;;;;;;;;;;;11.60;92.90;;;;;;5022293;28;19921;-69
2021/07/23 01:24:44;;;;;;;;;;;11.60;92.70;;;;;;5021447;28;19913;-69
2021/07/23 01:27:09;;;;;;;;;;;11.60;93.00;;;;;;5011424;28;19914;-69
2021/07/23 01:29:35;;;;;;;;;;;11.60;93.10;;;;;;5023407;28;20003;-69
2021/07/23 01:32:00;;;;;;;;;;;11.60;93.20;;;;;;5024163;28;19924;-70
2021/07/23 01:34:26;;;;;;;;;;;11.50;93.10;;;;;;5020484;28;19919;-69
2021/07/23 01:36:51;;;;;;;;;;;11.50;93.20;;;;;;5014955;28;19956;-68
2021/07/23 01:39:18;;;;;;;;;;;11.50;93.20;;;;;;5023803;28;20288;-67
2021/07/23 01:41:43;;;;;;;;;;;11.50;93.60;;;;;;5024856;28;19965;-68
2021/07/23 01:44:09;;;;;;;;;;;11.50;93.50;;;;;;5024049;28;19959;-68
2021/07/23 01:46:35;;;;;;;;;;;11.50;93.40;;;;;;5024826;28;20352;-68
2021/07/23 01:49:00;;;;;;;;;;;11.50;93.40;;;;;;5025189;28;19929;-67
2021/07/23 01:51:26;;;;;;;;;;;11.50;93.50;;;;;;5020153;28;19913;-68
2021/07/23 01:53:51;;;;;;;;;;;11.50;93.60;;;;;;5019943;28;19921;-68
2021/07/23 01:56:17;;;;;;;;;;;11.50;93.60;;;;;;5020757;28;20364;-68
2021/07/23 01:58:42;;;;;;;;;;;11.50;93.40;;;;;;5019761;28;19990;-67
2021/07/23 02:01:08;;;;;;;;;;;11.40;93.60;;;;;;5023427;28;19928;-69
2021/07/23 02:03:34;;;;;;;;;;;11.40;93.70;;;;;;5023682;28;19989;-68
2021/07/23 02:05:59;;;;;;;;;;;11.50;93.80;;;;;;5022320;28;19944;-67
2021/07/23 02:08:25;;;;;;;;;;;11.50;93.70;;;;;;5022924;28;19953;-67
2021/07/23 02:10:50;;;;;;;;;;;11.60;93.60;;;;;;5011716;28;19995;-69
2021/07/23 02:13:16;;;;;;;;;;;11.60;93.50;;;;;;5019461;28;20141;-68
2021/07/23 02:15:43;;;;;;;;;;;11.60;93.40;;;;;;5018784;28;19940;-67
2021/07/23 02:18:09;;;;;;;;;;;11.60;93.40;;;;;;5012472;28;20253;-68
2021/07/23 02:20:36;;;;;;;;;;;11.60;93.40;;;;;;5018406;28;19917;-68
2021/07/23 02:23:01;;;;;;;;;;;11.80;93.20;;;;;;5018188;28;20000;-67
2021/07/23 02:25:28;;;;;;;;;;;11.80;92.80;;;;;;5023176;28;20200;-68
2021/07/23 02:27:54;;;;;;;;;;;11.90;92.80;;;;;;5020858;28;19924;-67
2021/07/23 02:30:19;;;;;;;;;;;11.90;92.60;;;;;;5013898;28;19956;-67
2021/07/23 02:32:45;;;;;;;;;;;11.90;92.60;;;;;;5016305;28;20125;-66
2021/07/23 02:35:10;;;;;;;;;;;11.90;92.70;;;;;;5018742;28;20056;-69
2021/07/23 02:37:36;;;;;;;;;;;11.90;92.70;;;;;;5017378;28;19917;-68
2021/07/23 02:40:01;;;;;;;;;;;11.90;92.70;;;;;;5015951;28;19913;-67
2021/07/23 02:42:27;;;;;;;;;;;12.00;92.60;;;;;;5022440;28;20697;-68
2021/07/23 02:44:52;;;;;;;;;;;11.90;92.30;;;;;;5021628;28;20259;-67
2021/07/23 02:47:18;;;;;;;;;;;11.90;92.60;;;;;;5025215;28;20031;-68
2021/07/23 02:49:43;;;;;;;;;;;12.00;92.70;;;;;;5027383;28;20344;-69
2021/07/23 02:52:09;;;;;;;;;;;12.00;93.20;;;;;;5019761;28;19946;-67
2021/07/23 02:54:34;;;;;;;;;;;12.00;92.90;;;;;;5024208;28;20394;-67
2021/07/23 02:56:59;;;;;;;;;;;12.10;93.00;;;;;;5026918;28;19913;-68
2021/07/23 02:59:25;;;;;;;;;;;12.10;92.80;;;;;;5025146;28;19940;-69
2021/07/23 03:01:50;;;;;;;;;;;12.10;92.80;;;;;;5026347;28;20046;-69
2021/07/23 03:04:16;;;;;;;;;;;12.10;93.30;;;;;;5027368;28;20156;-68
2021/07/23 03:06:41;;;;;;;;;;;12.20;93.20;;;;;;5025233;28;19928;-67
2021/07/23 03:09:07;;;;;;;;;;;12.30;93.90;;;;;;5021623;28;19913;-68
2021/07/23 03:11:32;;;;;;;;;;;12.20;94.30;;;;;;5021089;28;20341;-67
2021/07/23 03:13:58;;;;;;;;;;;12.20;94.40;;;;;;5019490;28;19956;-67
2021/07/23 03:16:24;;;;;;;;;;;12.20;94.80;;;;;;5023014;28;20008;-67
2021/07/23 03:18:49;;;;;;;;;;;12.20;94.90;;;;;;5008979;28;20016;-67
2021/07/23 03:21:19;;;;;;;;;;;12.20;95.00;;;;;;5017511;28;19921;-67
2021/07/23 03:23:44;;;;;;;;;;;12.20;95.20;;;;;;5021995;28;19924;-67
2021/07/23 03:26:10;;;;;;;;;;;12.20;95.40;;;;;;5022022;28;19925;-67
2021/07/23 03:28:35;;;;;;;;;;;12.20;95.30;;;;;;5018672;28;20260;-67
2021/07/23 03:31:01;;;;;;;;;;;12.20;95.30;;;;;;5025140;28;20361;-67
2021/07/23 03:33:26;;;;;;;;;;;12.30;95.50;;;;;;5022514;28;19929;-68
2021/07/23 03:35:52;;;;;;;;;;;12.30;95.60;;;;;;5023800;28;20005;-67
2021/07/23 03:38:17;;;;;;;;;;;12.30;95.70;;;;;;5021696;28;20011;-67
2021/07/23 03:40:43;;;;;;;;;;;12.30;95.70;;;;;;5023861;28;20016;-68
2021/07/23 03:43:08;;;;;;;;;;;12.30;95.80;;;;;;5023260;28;19913;-67
2021/07/23 03:45:33;;;;;;;;;;;12.30;95.90;;;;;;5025262;28;20350;-66
2021/07/23 03:47:59;;;;;;;;;;;12.30;96.00;;;;;;5025405;28;20083;-68
2021/07/23 03:50:24;;;;;;;;;;;12.30;96.00;;;;;;5026100;28;19993;-66
2021/07/23 03:52:50;;;;;;;;;;;12.30;96.10;;;;;;5019450;28;20374;-66
2021/07/23 03:55:16;;;;;;;;;;;12.30;96.10;;;;;;5022246;28;19928;-66
2021/07/23 03:57:41;;;;;;;;;;;12.40;96.10;;;;;;5026040;28;19929;-67
2021/07/23 04:00:08;;;;;;;;;;;12.40;96.40;;;;;;5025214;28;20513;-66
2021/07/23 04:02:35;;;;;;;;;;;12.50;96.30;;;;;;5022316;28;19917;-67
2021/07/23 04:05:00;;;;;;;;;;;12.50;96.40;;;;;;5025327;28;19913;-67
2021/07/23 04:07:28;;;;;;;;;;;12.50;96.20;;;;;;5024321;28;21639;-67
2021/07/23 04:09:53;;;;;;;;;;;12.50;96.50;;;;;;5019763;28;20318;-68
2021/07/23 04:12:19;;;;;;;;;;;12.60;96.50;;;;;;5016899;28;19932;-67
2021/07/23 04:14:44;;;;;;;;;;;12.70;96.60;;;;;;5021056;28;20131;-66
2021/07/23 04:17:10;;;;;;;;;;;12.60;96.50;;;;;;5021840;28;19985;-68
2021/07/23 04:19:35;;;;;;;;;;;12.70;96.50;;;;;;5022702;28;19989;-68
2021/07/23 04:22:01;;;;;;;;;;;12.70;96.60;;;;;;5023083;28;19972;-67
2021/07/23 04:24:26;;;;;;;;;;;12.80;96.70;;;;;;5024984;28;19913;-68
2021/07/23 04:26:52;;;;;;;;;;;12.70;96.40;;;;;;5024513;28;20016;-69
2021/07/23 04:29:17;;;;;;;;;;;12.80;96.60;;;;;;5023052;28;20361;-67
2021/07/23 04:31:42;;;;;;;;;;;12.90;96.60;;;;;;5021352;28;19917;-67
2021/07/23 04:34:08;;;;;;;;;;;13.00;96.70;;;;;;5017620;28;19932;-67
2021/07/23 04:36:34;;;;;;;;;;;13.00;96.60;;;;;;5022839;28;19913;-68
2021/07/23 04:39:03;;;;;;;;;;;13.00;96.20;;;;;;5020968;28;19913;-68
2021/07/23 04:41:28;;;;;;;;;;;13.00;96.40;;;;;;5020784;28;20148;-68
2021/07/23 04:43:54;;;;;;;;;;;13.00;96.20;;;;;;5019851;28;20186;-68
2021/07/23 04:46:19;;;;;;;;;;;13.00;96.00;;;;;;5018467;28;19917;-68
2021/07/23 04:48:45;;;;;;;;;;;13.00;96.20;;;;;;5017673;28;20357;-66
2021/07/23 04:51:10;;;;;;;;;;;13.00;96.20;;;;;;5020481;28;19973;-68
2021/07/23 04:53:36;;;;;;;;;;;13.00;96.20;;;;;;5018535;28;19951;-68
2021/07/23 04:56:04;;;;;;;;;;;13.00;96.40;;;;;;4999333;28;20066;-69
2021/07/23 04:58:30;;;;;;;;;;;13.00;96.50;;;;;;5023178;28;19920;-68
2021/07/23 05:00:55;;;;;;;;;;;13.10;96.40;;;;;;5021032;28;20253;-68
2021/07/23 05:03:23;;;;;;;;;;;13.10;96.30;;;;;;5020937;28;19935;-68
2021/07/23 05:05:49;;;;;;;;;;;13.10;96.40;;;;;;5023862;28;19917;-68
2021/07/23 05:08:15;;;;;;;;;;;13.20;96.50;;;;;;5016961;28;20101;-66
2021/07/23 05:10:42;;;;;;;;;;;13.20;96.30;;;;;;5017401;28;19928;-68
2021/07/23 05:13:08;;;;;;;;;;;13.20;96.20;;;;;;5002695;28;19920;-67
2021/07/23 05:15:34;;;;;;;;;;;13.20;96.40;;;;;;5020530;28;20253;-68
2021/07/23 05:18:00;;;;;;;;;;;13.20;96.20;;;;;;5019922;28;20334;-68
2021/07/23 05:20:25;;;;;;;;;;;13.30;96.20;;;;;;5018364;28;19943;-69
2021/07/23 05:22:51;;;;;;;;;;;13.30;96.30;;;;;;5019483;28;20735;-68
2021/07/23 05:25:16;;;;;;;;;;;13.40;96.20;;;;;;5021703;28;20058;-66
2021/07/23 05:27:42;;;;;;;;;;;13.40;96.10;;;;;;5023377;28;19956;-67
2021/07/23 05:30:08;;;;;;;;;;;13.50;95.80;;;;;;5023117;28;19921;-67
2021/07/23 05:32:33;;;;;;;;;;;13.40;95.80;;;;;;5020869;28;20577;-68
2021/07/23 05:34:59;;;;;;;;;;;13.50;96.00;;;;;;5019626;28;19921;-68
2021/07/23 05:37:24;;;;;;;;;;;13.40;95.90;;;;;;5019245;28;19921;-68
2021/07/23 05:39:50;;;;;;;;;;;13.40;96.00;;;;;;5018664;28;19996;-68
2021/07/23 05:42:15;;;;;;;;;;;13.40;96.10;;;;;;5014909;28;19921;-66
2021/07/23 05:44:41;;;;;;;;;;;13.50;96.40;;;;;;5023938;28;20000;-67
2021/07/23 05:47:07;;;;;;;;;;;13.50;96.30;;;;;;5022690;28;19928;-68
2021/07/23 05:49:32;;;;;;;;;;;13.60;96.20;;;;;;5023585;28;19967;-66
2021/07/23 05:51:58;;;;;;;;;;;13.60;96.10;;;;;;5022797;28;20338;-68
2021/07/23 05:54:23;;;;;;;;;;;13.60;96.00;;;;;;5019576;28;19929;-67
2021/07/23 05:56:49;;;;;;;;;;;13.70;96.10;;;;;;5023091;28;19935;-67
2021/07/23 05:59:15;;;;;;;;;;;13.80;96.20;;;;;;5023067;28;20359;-68
2021/07/23 06:01:40;;;;;;;;;;;13.90;96.10;;;;;;5020325;28;21096;-67
2021/07/23 06:04:06;;;;;;;;;;;14.00;96.20;;;;;;5021885;28;19924;-67
2021/07/23 06:06:31;;;;;;;;;;;14.00;95.80;;;;;;5023273;28;19921;-68
2021/07/23 06:08:58;;;;;;;;;;;14.10;95.80;;;;;;5024061;28;19957;-67
2021/07/23 06:11:24;;;;;;;;;;;14.20;95.70;;;;;;5015137;28;20734;-67
2021/07/23 06:13:49;;;;;;;;;;;14.30;95.90;;;;;;5022073;28;19928;-68
2021/07/23 06:16:15;;;;;;;;;;;14.40;95.70;;;;;;5018345;28;19917;-68
2021/07/23 06:18:40;;;;;;;;;;;14.30;95.20;;;;;;5002773;28;21059;-68
2021/07/23 06:21:06;;;;;;;;;;;14.40;95.60;;;;;;5013484;28;20320;-67
2021/07/23 06:23:31;;;;;;;;;;;14.50;95.50;;;;;;5016936;28;19913;-67
2021/07/23 06:25:57;;;;;;;;;;;14.50;95.40;;;;;;5018756;28;19992;-69
2021/07/23 06:28:22;;;;;;;;;;;14.50;95.10;;;;;;5024089;28;19966;-68
2021/07/23 06:30:48;;;;;;;;;;;14.50;95.50;;;;;;5020137;28;20452;-67
2021/07/23 06:33:13;;;;;;;;;;;14.60;95.60;;;;;;5003032;28;19942;-67
2021/07/23 06:35:39;;;;;;;;;;;14.70;95.20;;;;;;5014464;28;20047;-68
2021/07/23 06:38:05;;;;;;;;;;;14.70;95.20;;;;;;5021590;28;19966;-67
2021/07/23 06:40:30;;;;;;;;;;;14.80;95.30;;;;;;5014214;28;19928;-67
2021/07/23 06:42:56;;;;;;;;;;;14.90;95.20;;;;;;4999804;28;20009;-68
2021/07/23 06:45:21;;;;;;;;;;;14.80;95.50;;;;;;5019487;28;20010;-67
2021/07/23 06:47:47;;;;;;;;;;;14.90;95.70;;;;;;5017783;28;20246;-66
2021/07/23 06:50:13;;;;;;;;;;;14.90;95.80;;;;;;5020282;28;20308;-67
2021/07/23 06:52:38;;;;;;;;;;;14.90;95.80;;;;;;5019389;28;20092;-68
2021/07/23 06:55:04;;;;;;;;;;;14.90;95.50;;;;;;5021971;28;20103;-68
2021/07/23 06:57:34;;;;;;;;;;;14.90;95.50;;;;;;5022900;28;20419;-68
2021/07/23 06:59:59;;;;;;;;;;;14.80;95.60;;;;;;5009370;28;20064;-67
2021/07/23 07:02:25;;;;;;;;;;;14.80;95.70;;;;;;5022200;28;20071;-68
2021/07/23 07:04:50;;;;;;;;;;;14.90;95.80;;;;;;5019624;28;19939;-68
2021/07/23 07:07:16;;;;;;;;;;;15.00;96.00;;;;;;5020258;28;19974;-68
2021/07/23 07:09:43;;;;;;;;;;;15.10;95.70;;;;;;5022158;28;19952;-68
2021/07/23 07:12:09;;;;;;;;;;;15.10;95.40;;;;;;5019419;28;20768;-69
2021/07/23 07:14:34;;;;;;;;;;;15.20;95.50;;;;;;5021006;28;19923;-69
2021/07/23 07:17:00;;;;;;;;;;;15.30;95.60;;;;;;5026544;28;19920;-68
2021/07/23 07:19:25;;;;;;;;;;;15.40;95.00;;;;;;5025323;28;19932;-67
2021/07/23 07:21:51;;;;;;;;;;;15.50;95.50;;;;;;5018501;28;20366;-67
2021/07/23 07:24:17;;;;;;;;;;;15.50;94.90;;;;;;5016711;28;20384;-68
2021/07/23 07:26:44;;;;;;;;;;;15.50;94.30;;;;;;5016148;28;20404;-68
2021/07/23 07:29:09;;;;;;;;;;;15.70;94.30;;;;;;5015489;28;19920;-69
2021/07/23 07:31:35;;;;;;;;;;;15.70;93.90;;;;;;5015534;28;20099;-68
2021/07/23 07:34:00;;;;;;;;;;;15.80;94.10;;;;;;5019434;28;19922;-68
2021/07/23 07:36:25;;;;;;;;;;;16.00;92.90;;;;;;5015436;28;19918;-68
2021/07/23 07:38:51;;;;;;;;;;;16.10;93.10;;;;;;5021004;28;20558;-69
2021/07/23 07:41:17;;;;;;;;;;;16.10;91.70;;;;;;5016079;28;19951;-68
2021/07/23 07:43:42;;;;;;;;;;;16.30;92.10;;;;;;5017709;28;19971;-68
2021/07/23 07:46:08;;;;;;;;;;;16.50;91.00;;;;;;5016868;28;19917;-68
2021/07/23 07:48:33;;;;;;;;;;;16.60;89.60;;;;;;5018458;28;19925;-67
2021/07/23 07:50:59;;;;;;;;;;;16.70;90.30;;;;;;5019844;28;19913;-68
2021/07/23 07:53:24;;;;;;;;;;;16.80;89.70;;;;;;5013901;28;20271;-67
2021/07/23 07:55:50;;;;;;;;;;;17.00;88.40;;;;;;5014983;28;19996;-67
2021/07/23 07:58:15;;;;;;;;;;;16.90;89.50;;;;;;5015693;28;19922;-68
2021/07/23 08:00:41;;;;;;;;;;;17.20;90.10;;;;;;5022666;28;19920;-68
2021/07/23 08:03:07;;;;;;;;;;;17.30;90.70;;;;;;5015557;28;19918;-68
2021/07/23 08:05:32;;;;;;;;;;;17.40;90.00;;;;;;5018992;28;20251;-69
2021/07/23 08:07:59;;;;;;;;;;;17.20;88.00;;;;;;5019708;28;20407;-68
2021/07/23 08:10:25;;;;;;;;;;;17.40;89.70;;;;;;5019840;28;19921;-68
2021/07/23 08:12:51;;;;;;;;;;;17.20;87.90;;;;;;5023757;28;19942;-68
2021/07/23 08:15:17;;;;;;;;;;;17.10;88.00;;;;;;5000317;28;20059;-68
2021/07/23 08:17:42;;;;;;;;;;;17.20;88.90;;;;;;5022149;28;19914;-68
2021/07/23 08:20:09;;;;;;;;;;;17.20;90.20;;;;;;5023484;28;19914;-69
2021/07/23 08:22:34;;;;;;;;;;;17.00;88.60;;;;;;5024116;28;19964;-68
2021/07/23 08:25:00;;;;;;;;;;;16.80;89.30;;;;;;5020612;28;19967;-68
2021/07/23 08:27:25;;;;;;;;;;;16.70;90.00;;;;;;5022273;28;19921;-67
2021/07/23 08:29:51;;;;;;;;;;;16.60;89.20;;;;;;5023723;28;20140;-66
2021/07/23 08:32:16;;;;;;;;;;;16.50;88.00;;;;;;5018969;28;20360;-67
2021/07/23 08:34:42;;;;;;;;;;;16.50;89.70;;;;;;5024063;28;21057;-67
2021/07/23 08:37:07;;;;;;;;;;;16.30;88.60;;;;;;5022836;28;19959;-68
2021/07/23 08:39:33;;;;;;;;;;;16.30;89.90;;;;;;5022996;28;20050;-68
2021/07/23 08:41:59;;;;;;;;;;;16.40;91.10;;;;;;5022708;28;19965;-68
2021/07/23 08:44:27;;;;;;;;;;;16.20;90.90;;;;;;5023251;28;19939;-69
2021/07/23 08:46:53;;;;;;;;;;;16.10;90.90;;;;;;5021338;28;20321;-68
2021/07/23 08:49:20;;;;;;;;;;;16.20;92.00;;;;;;5023947;28;19917;-68
2021/07/23 08:51:49;;;;;;;;;;;16.20;91.50;;;;;;5022130;28;20365;-69
2021/07/23 08:54:15;;;;;;;;;;;16.10;91.30;;;;;;5021970;28;19929;-68
2021/07/23 08:56:47;;;;;;;;;;;16.10;92.10;;;;;;5023088;28;19917;-68
2021/07/23 08:59:12;;;;;;;;;;;16.10;92.30;;;;;;5022278;28;19917;-68
2021/07/23 09:01:56;;;;;;;;;;;16.10;92.00;;;;;;5024304;28;19921;-68
2021/07/23 09:04:32;;;;;;;;;;;16.20;92.50;;;;;;5022647;28;20043;-68
2021/07/23 09:07:25;;;;;;;;;;;16.20;92.60;;;;;;5022831;28;19942;-69
2021/07/23 09:09:55;;;;;;;;;;;16.20;92.50;;;;;;5020695;28;20350;-68
2021/07/23 09:12:20;;;;;;;;;;;16.10;92.50;;;;;;5017905;28;20023;-68
2021/07/23 09:14:46;;;;;;;;;;;16.20;92.30;;;;;;5022358;28;19969;-68
2021/07/23 09:17:11;;;;;;;;;;;16.30;92.40;;;;;;5024269;28;20018;-68
2021/07/23 09:19:39;;;;;;;;;;;16.30;92.20;;;;;;5022769;28;20319;-68
2021/07/23 09:22:05;;;;;;;;;;;16.30;91.60;;;;;;5022723;28;19925;-68
2021/07/23 09:24:50;;;;;;;;;;;16.40;91.00;;;;;;5025027;28;20043;-68
2021/07/23 09:27:32;;;;;;;;;;;16.50;90.70;;;;;;5018905;28;19936;-67
2021/07/23 09:29:57;;;;;;;;;;;16.60;90.50;;;;;;5016986;28;19927;-68
2021/07/23 09:32:26;;;;;;;;;;;16.90;90.90;;;;;;5020271;28;20369;-69
2021/07/23 09:34:53;;;;;;;;;;;17.00;91.20;;;;;;5019334;28;19956;-68
2021/07/23 09:37:19;;;;;;;;;;;17.10;90.50;;;;;;5016033;28;20257;-69
2021/07/23 09:39:54;;;;;;;;;;;17.20;89.70;;;;;;5025211;28;19985;-68
2021/07/23 09:42:20;;;;;;;;;;;17.20;89.70;;;;;;5021067;28;19921;-68
2021/07/23 09:44:46;;;;;;;;;;;17.30;89.30;;;;;;5017340;28;20284;-68
2021/07/23 09:47:23;;;;;;;;;;;17.10;88.90;;;;;;5015867;28;19980;-68
2021/07/23 09:49:49;;;;;;;;;;;17.30;90.10;;;;;;5003632;28;19917;-68
2021/07/23 09:52:15;;;;;;;;;;;17.50;89.80;;;;;;5013222;28;19985;-68
2021/07/23 09:54:40;;;;;;;;;;;17.50;87.80;;;;;;5021988;28;19944;-68
2021/07/23 09:57:07;;;;;;;;;;;17.60;87.90;;;;;;5020321;28;20353;-67
2021/07/23 09:59:41;;;;;;;;;;;17.70;87.60;;;;;;5023838;28;20272;-67
2021/07/23 10:02:10;;;;;;;;;;;17.80;87.50;;;;;;5018662;28;19928;-67
2021/07/23 10:04:47;;;;;;;;;;;18.00;87.30;;;;;;5015391;28;19976;-68
2021/07/23 10:07:17;;;;;;;;;;;18.00;87.10;;;;;;5005740;28;20250;-67
2021/07/23 10:09:43;;;;;;;;;;;18.00;86.60;;;;;;5018319;28;19917;-67
2021/07/23 10:12:09;;;;;;;;;;;18.10;85.80;;;;;;5019847;28;19917;-67
2021/07/23 10:14:43;;;;;;;;;;;18.20;87.50;;;;;;5022301;28;20130;-67
2021/07/23 10:17:08;;;;;;;;;;;18.10;85.70;;;;;;5017574;28;19932;-67
2021/07/23 10:19:36;;;;;;;;;;;18.30;85.20;;;;;;5021846;28;20286;-68
2021/07/23 10:22:01;;;;;;;;;;;18.10;84.10;;;;;;5023459;28;20345;-67
2021/07/23 10:24:31;;;;;;;;;;;18.50;86.30;;;;;;5017455;28;19959;-68
2021/07/23 10:26:57;;;;;;;;;;;18.50;83.00;;;;;;5008839;28;19913;-68
2021/07/23 10:29:42;;;;;;;;;;;18.70;85.20;;;;;;5020642;28;20051;-68
2021/07/23 10:32:26;;;;;;;;;;;18.80;82.80;;;;;;5022486;28;19924;-68
2021/07/23 10:34:52;;;;;;;;;;;19.00;83.40;;;;;;5023985;28;19917;-67
2021/07/23 10:37:29;;;;;;;;;;;19.40;83.30;;;;;;5020094;28;19979;-68
2021/07/23 10:40:07;;;;;;;;;;;19.20;79.20;;;;;;5016257;28;19979;-68
2021/07/23 10:42:34;;;;;;;;;;;19.20;80.70;;;;;;5016782;28;19948;-68
2021/07/23 10:44:59;;;;;;;;;;;19.40;79.60;;;;;;5020163;28;19921;-68
2021/07/23 10:47:39;;;;;;;;;;;19.30;76.70;;;;;;5020348;28;19991;-68
2021/07/23 10:50:07;;;;;;;;;;;19.40;81.30;;;;;;5007438;28;19928;-68
2021/07/23 10:52:39;;;;;;;;;;;19.60;79.20;;;;;;5022256;28;20277;-69
2021/07/23 10:55:11;;;;;;;;;;;19.80;80.10;;;;;;5023940;28;19975;-69
2021/07/23 10:57:37;;;;;;;;;;;19.80;80.10;;;;;;5020421;28;19960;-68
2021/07/23 11:00:04;;;;;;;;;;;20.10;77.90;;;;;;5023814;28;20027;-68
2021/07/23 11:02:29;;;;;;;;;;;20.20;77.80;;;;;;5015956;28;20346;-68
2021/07/23 11:05:14;;;;;;;;;;;20.30;77.40;;;;;;5012091;28;19975;-68
2021/07/23 11:07:40;;;;;;;;;;;20.20;76.70;;;;;;5024043;28;19912;-69
2021/07/23 11:10:08;;;;;;;;;;;20.30;77.10;;;;;;5020734;28;19929;-69
2021/07/23 11:12:39;;;;;;;;;;;20.20;76.40;;;;;;5024417;28;20440;-67
2021/07/23 11:15:05;;;;;;;;;;;19.80;76.40;;;;;;5026914;28;19913;-69
2021/07/23 11:17:31;;;;;;;;;;;19.80;77.40;;;;;;5017181;28;19988;-68
2021/07/23 11:20:04;;;;;;;;;;;19.90;78.50;;;;;;5016438;28;19964;-69
2021/07/23 11:22:32;;;;;;;;;;;20.00;78.30;;;;;;5024623;28;20016;-69
2021/07/23 11:25:01;;;;;;;;;;;20.20;78.90;;;;;;5024027;28;20007;-69
2021/07/23 11:27:28;;;;;;;;;;;19.90;75.60;;;;;;5025543;28;19927;-69
2021/07/23 11:29:54;;;;;;;;;;;19.90;76.00;;;;;;5024749;28;19920;-68
2021/07/23 11:32:21;;;;;;;;;;;19.80;78.00;;;;;;5025798;28;19913;-69
2021/07/23 11:34:47;;;;;;;;;;;19.70;75.50;;;;;;5018514;28;20085;-69
2021/07/23 11:37:15;;;;;;;;;;;19.70;77.30;;;;;;5026533;28;20403;-69
2021/07/23 11:39:54;;;;;;;;;;;19.30;75.40;;;;;;5021175;28;19969;-69
2021/07/23 11:42:20;;;;;;;;;;;19.70;77.60;;;;;;5024139;28;19924;-69
2021/07/23 11:44:49;;;;;;;;;;;19.80;74.60;;;;;;5014777;28;20053;-69
2021/07/23 11:47:15;;;;;;;;;;;19.60;75.50;;;;;;5027379;28;19924;-70
2021/07/23 11:49:40;;;;;;;;;;;19.50;76.50;;;;;;5019871;28;19917;-69
2021/07/23 11:52:06;;;;;;;;;;;19.70;77.90;;;;;;5027250;28;19924;-69
2021/07/23 11:54:31;;;;;;;;;;;19.60;75.90;;;;;;5013149;28;19999;-68
2021/07/23 11:57:01;;;;;;;;;;;19.70;78.80;;;;;;5014068;28;19920;-69
2021/07/23 11:59:27;;;;;;;;;;;19.90;77.30;;;;;;5023939;28;19913;-69
2021/07/23 12:01:52;;;;;;;;;;;19.80;77.00;;;;;;5024221;28;19928;-68
2021/07/23 12:04:28;;;;;;;;;;;19.60;75.50;;;;;;5021299;28;20285;-69
2021/07/23 12:06:54;;;;;;;;;;;19.50;76.40;;;;;;5027493;28;19920;-69
2021/07/23 12:09:20;;;;;;;;;;;19.90;75.30;;;;;;5025217;28;19917;-69
2021/07/23 12:11:45;;;;;;;;;;;20.00;74.70;;;;;;5026134;28;20296;-69
2021/07/23 12:14:13;;;;;;;;;;;20.00;76.00;;;;;;5026655;28;19918;-69
2021/07/23 12:16:39;;;;;;;;;;;19.90;74.90;;;;;;5027151;28;20345;-69
2021/07/23 12:19:09;;;;;;;;;;;19.70;76.90;;;;;;5024385;28;19928;-69
2021/07/23 12:21:35;;;;;;;;;;;19.70;75.30;;;;;;5024036;28;19939;-69
2021/07/23 12:24:07;;;;;;;;;;;19.60;75.70;;;;;;5021118;28;19917;-68
2021/07/23 12:26:42;;;;;;;;;;;19.60;75.40;;;;;;5013837;28;19967;-69
2021/07/23 12:29:10;;;;;;;;;;;19.90;74.90;;;;;;5016016;28;19958;-70
2021/07/23 12:31:37;;;;;;;;;;;19.80;73.80;;;;;;5021690;28;19940;-69
2021/07/23 12:34:21;;;;;;;;;;;19.80;75.20;;;;;;5025850;28;19939;-69
2021/07/23 12:36:48;;;;;;;;;;;20.00;73.30;;;;;;5025626;28;20354;-68
2021/07/23 12:39:14;;;;;;;;;;;20.20;71.70;;;;;;5025532;28;20300;-70
2021/07/23 12:41:40;;;;;;;;;;;20.80;73.50;;;;;;5013452;28;19917;-70
2021/07/23 12:44:06;;;;;;;;;;;21.00;71.70;;;;;;5016912;28;19935;-69
2021/07/23 12:46:32;;;;;;;;;;;21.00;71.20;;;;;;5024462;28;19935;-69
2021/07/23 12:49:19;;;;;;;;;;;20.80;70.40;;;;;;5017979;28;20377;-69
2021/07/23 12:51:46;;;;;;;;;;;21.40;70.60;;;;;;5022668;28;19909;-69
2021/07/23 12:54:12;;;;;;;;;;;21.70;66.30;;;;;;5025046;28;19988;-69
2021/07/23 12:56:38;;;;;;;;;;;21.50;70.40;;;;;;5023466;28;19989;-69
2021/07/23 12:59:24;;;;;;;;;;;21.50;69.00;;;;;;5021403;28;19914;-68
2021/07/23 13:01:50;;;;;;;;;;;21.40;70.10;;;;;;5020473;28;20199;-69
2021/07/23 13:04:15;;;;;;;;;;;21.50;66.90;;;;;;5024772;28;19999;-70
2021/07/23 13:06:41;;;;;;;;;;;21.50;69.00;;;;;;5020499;28;20317;-69
2021/07/23 13:09:06;;;;;;;;;;;21.40;70.80;;;;;;5019187;28;19932;-67
2021/07/23 13:11:33;;;;;;;;;;;21.30;68.20;;;;;;5020904;28;20010;-69
2021/07/23 13:13:59;;;;;;;;;;;20.90;71.20;;;;;;5028166;28;20292;-70
2021/07/23 13:16:24;;;;;;;;;;;20.50;72.00;;;;;;5031597;28;20051;-69
2021/07/23 13:18:50;;;;;;;;;;;20.30;73.40;;;;;;5024387;28;20022;-69
2021/07/23 13:21:17;;;;;;;;;;;20.20;75.10;;;;;;5019566;28;19920;-68
2021/07/23 13:23:43;;;;;;;;;;;20.00;75.90;;;;;;5024002;28;19971;-70
2021/07/23 13:26:08;;;;;;;;;;;19.70;76.30;;;;;;5022902;28;19925;-69
2021/07/23 13:28:34;;;;;;;;;;;19.40;76.40;;;;;;5014123;28;19948;-69
2021/07/23 13:31:03;;;;;;;;;;;19.30;77.40;;;;;;5014162;28;19944;-69
2021/07/23 13:33:29;;;;;;;;;;;19.50;79.10;;;;;;5017190;28;19936;-69
2021/07/23 13:36:00;;;;;;;;;;;19.50;78.30;;;;;;5019143;28;19921;-68
2021/07/23 13:38:29;;;;;;;;;;;19.50;77.40;;;;;;5015505;28;19937;-69
2021/07/23 13:40:55;;;;;;;;;;;19.50;77.80;;;;;;5026633;28;19971;-67
2021/07/23 13:43:20;;;;;;;;;;;19.80;75.90;;;;;;5024394;28;20342;-69
2021/07/23 13:45:46;;;;;;;;;;;19.60;77.90;;;;;;5019826;28;19913;-69
2021/07/23 13:48:11;;;;;;;;;;;19.90;78.10;;;;;;5017687;28;19917;-69
2021/07/23 13:50:37;;;;;;;;;;;20.00;75.30;;;;;;5001784;28;19944;-69
2021/07/23 13:53:02;;;;;;;;;;;19.90;74.90;;;;;;5015736;28;19913;-69
2021/07/23 13:55:28;;;;;;;;;;;20.00;74.70;;;;;;5021708;28;19920;-69
2021/07/23 13:57:53;;;;;;;;;;;20.30;75.90;;;;;;5023088;28;19917;-69
2021/07/23 14:00:19;;;;;;;;;;;20.20;74.00;;;;;;5023691;28;19936;-70
2021/07/23 14:02:46;;;;;;;;;;;20.20;74.70;;;;;;5017344;28;19959;-69
2021/07/23 14:05:12;;;;;;;;;;;20.00;73.40;;;;;;5017432;28;19967;-69
2021/07/23 14:07:37;;;;;;;;;;;20.20;76.10;;;;;;5007502;28;19944;-69
2021/07/23 14:10:08;;;;;;;;;;;20.30;75.10;;;;;;5020830;28;20370;-69
2021/07/23 14:12:34;;;;;;;;;;;20.20;76.10;;;;;;5019571;28;20389;-69
2021/07/23 14:15:00;;;;;;;;;;;20.10;76.60;;;;;;5024190;28;20341;-69